Johnson City, Tennessee
Current Conditions -  °F | °C
As of 8:15 AM on Tuesday 21 Oct 2014 (Local Time) from K0A9 Reporting Station
Overcast Overcast  
Wind Chill: 52°   Ceiling: 2300
Heat Index: 52°   Visibility: 10mi
Dew Point: 48°   Wind: 3mph
Humidity: 88%   Direction: 260°W
Pressure: 29.98"   Gusts: NA
Location:  36.32°N, 82.34°W
Report Text: K0A9 211215Z AUTO 26003KT 10SM BKN023 OVC032 11/09 A2998 RMK
Loading
Personal Weather Stations






























Interactive Weather Map New forecast layout! Learn more

10-Day Weather Forecast

Advertisements
Track Severe Weather on mobile